createdAt,value
2023-04-02T00:00:19.577Z,72.07
2023-04-02T00:02:55.463Z,71.74
2023-04-02T00:05:26.072Z,72.14
2023-04-02T00:07:57.908Z,71.63
2023-04-02T00:10:39.710Z,71.53
2023-04-02T00:13:11.943Z,71.27
2023-04-02T00:15:40.936Z,71.61
2023-04-02T00:18:13.205Z,72.13
2023-04-02T00:20:43.788Z,72.06
2023-04-02T00:23:14.276Z,72.75
2023-04-02T00:25:46.161Z,72.10
2023-04-02T00:28:15.279Z,71.70
2023-04-02T00:31:00.012Z,71.81
2023-04-02T00:33:30.008Z,71.36
2023-04-02T00:35:56.500Z,72.14
2023-04-02T00:38:27.736Z,71.64
2023-04-02T00:40:57.356Z,71.89
2023-04-02T00:43:27.996Z,71.85
2023-04-02T00:45:58.142Z,71.88
2023-04-02T00:48:31.327Z,71.65
2023-04-02T00:51:07.860Z,71.54
2023-04-02T00:53:35.646Z,71.87
2023-04-02T00:56:03.413Z,71.51
2023-04-02T00:58:34.029Z,71.26
2023-04-02T01:01:01.280Z,70.92
2023-04-02T01:03:36.575Z,70.68
2023-04-02T01:06:16.815Z,71.13
2023-04-02T01:08:55.836Z,70.91
2023-04-02T01:12:06.623Z,70.73
2023-04-02T01:14:56.303Z,70.40
2023-04-02T01:18:06.854Z,70.54
2023-04-02T01:20:55.079Z,70.03
2023-04-02T01:23:32.320Z,70.00
2023-04-02T01:26:06.900Z,70.10
2023-04-02T01:28:51.803Z,70.08
2023-04-02T01:31:18.671Z,69.63
2023-04-02T01:33:45.339Z,69.73
2023-04-02T01:36:23.845Z,70.05
2023-04-02T01:39:08.714Z,69.91
2023-04-02T01:41:49.729Z,69.71
2023-04-02T01:44:29.837Z,69.87
2023-04-02T01:46:58.777Z,70.07
2023-04-02T01:49:25.984Z,70.63
2023-04-02T01:51:56.760Z,70.21
2023-04-02T01:54:26.070Z,70.45
2023-04-02T01:56:52.697Z,70.33
2023-04-02T01:59:22.153Z,70.52
2023-04-02T02:02:01.915Z,70.21
2023-04-02T02:04:31.004Z,70.43
2023-04-02T02:07:01.986Z,70.57
2023-04-02T02:09:35.804Z,70.76
2023-04-02T02:12:04.159Z,70.53
2023-04-02T02:14:31.432Z,70.24
2023-04-02T02:17:02.379Z,71.03
2023-04-02T02:19:34.424Z,71.32
2023-04-02T02:22:13.835Z,71.71
2023-04-02T02:24:42.105Z,71.66
2023-04-02T02:27:42.993Z,71.42
2023-04-02T02:30:22.079Z,71.46
2023-04-02T02:33:01.048Z,71.19
2023-04-02T02:36:07.635Z,71.71
2023-04-02T02:38:46.067Z,71.34
2023-04-02T02:41:26.744Z,71.68
2023-04-02T02:44:00.838Z,71.89
2023-04-02T02:46:30.272Z,72.69
2023-04-02T02:48:59.989Z,72.66
2023-04-02T02:51:40.445Z,72.62
2023-04-02T02:54:09.136Z,72.45
2023-04-02T02:56:42.419Z,72.99
2023-04-02T02:59:11.185Z,72.90
2023-04-02T03:01:42.246Z,73.13
2023-04-02T03:04:09.821Z,73.30
2023-04-02T03:06:36.763Z,73.23
2023-04-02T03:09:22.756Z,73.36
2023-04-02T03:11:56.142Z,72.95
2023-04-02T03:14:32.823Z,73.50
2023-04-02T03:17:10.915Z,73.35
2023-04-02T03:19:47.699Z,73.47
2023-04-02T03:22:32.284Z,73.38
2023-04-02T03:25:13.077Z,73.26
2023-04-02T03:27:44.288Z,74.37
2023-04-02T03:30:57.977Z,74.48
2023-04-02T03:33:29.978Z,74.88
2023-04-02T03:36:21.097Z,75.28
2023-04-02T03:39:05.800Z,75.86
2023-04-02T03:41:41.779Z,75.50
2023-04-02T03:44:21.620Z,76.39
2023-04-02T03:46:57.385Z,76.28
2023-04-02T03:49:39.580Z,76.63
2023-04-02T03:52:11.839Z,77.27
2023-04-02T03:54:41.042Z,77.39
2023-04-02T03:57:38.248Z,77.02
2023-04-02T04:00:14.235Z,77.43
2023-04-02T04:02:57.391Z,77.68
2023-04-02T04:05:34.578Z,78.09
2023-04-02T04:08:06.644Z,78.27
2023-04-02T04:10:35.479Z,78.08
2023-04-02T04:13:28.181Z,78.38
2023-04-02T04:16:00.650Z,78.76
2023-04-02T04:18:37.760Z,78.92
2023-04-02T04:21:22.805Z,78.62
2023-04-02T04:23:51.048Z,78.69
2023-04-02T04:26:31.152Z,78.65
2023-04-02T04:29:13.368Z,78.67
2023-04-02T04:31:46.953Z,78.95
2023-04-02T04:34:19.105Z,78.88
2023-04-02T04:36:55.228Z,78.54
2023-04-02T04:39:47.229Z,78.71
2023-04-02T04:42:21.396Z,78.98
2023-04-02T04:45:00.554Z,78.68
2023-04-02T04:47:36.249Z,78.94
2023-04-02T04:50:33.085Z,78.66
2023-04-02T04:53:14.236Z,79.29
2023-04-02T04:55:45.751Z,79.03
2023-04-02T04:58:24.473Z,78.88
2023-04-02T05:01:24.044Z,79.75
2023-04-02T05:03:57.525Z,79.86
2023-04-02T05:06:45.007Z,78.75
2023-04-02T05:09:33.144Z,78.78
2023-04-02T05:12:17.808Z,79.71
2023-04-02T05:15:05.676Z,79.09
2023-04-02T05:17:42.557Z,79.96
2023-04-02T05:20:22.747Z,80.19
2023-04-02T05:23:02.712Z,79.83
2023-04-02T05:25:31.646Z,79.81
2023-04-02T05:28:22.093Z,80.19
2023-04-02T05:31:12.147Z,81.07
2023-04-02T05:33:40.660Z,80.51
2023-04-02T05:36:19.632Z,81.17
2023-04-02T05:38:51.987Z,81.15
2023-04-02T05:41:32.297Z,80.71
2023-04-02T05:44:16.492Z,80.70
2023-04-02T05:46:51.467Z,81.14
2023-04-02T05:49:25.577Z,81.10
2023-04-02T05:51:58.102Z,81.02
2023-04-02T05:54:30.386Z,80.79
2023-04-02T05:57:04.698Z,80.88
2023-04-02T05:59:49.554Z,80.99
2023-04-02T06:02:30.944Z,80.97
2023-04-02T06:05:16.717Z,81.12
2023-04-02T06:07:47.781Z,80.83
2023-04-02T06:10:24.606Z,80.84
2023-04-02T06:13:06.569Z,80.32
2023-04-02T06:15:38.286Z,80.16
2023-04-02T06:18:20.041Z,80.14
2023-04-02T06:20:47.921Z,79.75
2023-04-02T06:23:21.299Z,79.65
2023-04-02T06:26:14.936Z,79.21
2023-04-02T06:28:47.786Z,78.49
2023-04-02T06:31:39.109Z,78.04
2023-04-02T06:34:16.011Z,78.12
2023-04-02T06:36:49.959Z,76.63
2023-04-02T06:39:20.170Z,75.78
2023-04-02T06:42:04.635Z,75.51
2023-04-02T06:44:50.368Z,75.11
2023-04-02T06:47:43.139Z,75.17
2023-04-02T06:50:19.481Z,74.24
2023-04-02T06:52:50.778Z,73.77
2023-04-02T06:55:29.805Z,72.84
2023-04-02T06:57:56.810Z,72.52
2023-04-02T07:00:30.541Z,71.82
2023-04-02T07:03:01.118Z,71.91
2023-04-02T07:05:27.775Z,71.57
2023-04-02T07:07:54.446Z,71.06
2023-04-02T07:10:21.332Z,69.57
2023-04-02T07:12:48.404Z,69.93
2023-04-02T07:15:19.301Z,68.32
2023-04-02T07:17:46.774Z,67.70
2023-04-02T07:20:29.633Z,67.63
2023-04-02T07:22:58.332Z,66.58
2023-04-02T07:25:26.468Z,66.71
2023-04-02T07:27:53.869Z,65.97
2023-04-02T07:30:20.394Z,66.71
2023-04-02T07:32:47.349Z,66.13
2023-04-02T07:35:14.130Z,64.46
2023-04-02T07:37:40.716Z,64.55
2023-04-02T07:40:20.522Z,64.46
2023-04-02T07:42:47.733Z,64.15
2023-04-02T07:45:14.580Z,64.36
2023-04-02T07:47:41.517Z,64.68
2023-04-02T07:50:08.695Z,63.38
2023-04-02T07:52:40.644Z,63.22
2023-04-02T07:55:07.885Z,63.11
2023-04-02T07:57:39.071Z,61.96
2023-04-02T08:00:07.417Z,59.30
2023-04-02T08:02:38.890Z,60.48
2023-04-02T08:05:05.922Z,61.01
2023-04-02T08:07:32.573Z,61.14
2023-04-02T08:09:59.061Z,61.26
2023-04-02T08:12:25.460Z,62.32
2023-04-02T08:14:51.927Z,63.06
2023-04-02T08:17:18.694Z,62.04
2023-04-02T08:19:54.772Z,63.86
2023-04-02T08:22:21.875Z,61.01
2023-04-02T08:24:48.273Z,58.09
2023-04-02T08:27:15.302Z,57.87
2023-04-02T08:29:41.724Z,57.49
2023-04-02T08:32:15.643Z,57.64
2023-04-02T08:34:43.266Z,56.94
2023-04-02T08:37:11.722Z,55.66
2023-04-02T08:39:38.515Z,57.79
2023-04-02T08:42:19.196Z,57.29
2023-04-02T08:45:25.495Z,56.60
2023-04-02T08:47:56.099Z,58.76
2023-04-02T08:50:37.750Z,56.56
2023-04-02T08:53:12.410Z,56.66
2023-04-02T08:55:42.975Z,57.89
2023-04-02T08:58:32.228Z,53.43
2023-04-02T09:01:02.240Z,53.59
2023-04-02T09:03:36.652Z,55.48
2023-04-02T09:06:05.471Z,56.18
2023-04-02T09:08:33.440Z,55.02
2023-04-02T09:11:29.314Z,54.50
2023-04-02T09:14:01.820Z,54.75
2023-04-02T09:16:45.137Z,56.57
2023-04-02T09:19:38.049Z,57.25
2023-04-02T09:22:30.236Z,54.85
2023-04-02T09:25:01.717Z,55.56
2023-04-02T09:27:31.430Z,55.65
2023-04-02T09:30:03.768Z,56.66
2023-04-02T09:32:36.525Z,56.98
2023-04-02T09:35:25.610Z,53.75
2023-04-02T09:38:17.494Z,51.40
2023-04-02T09:40:58.578Z,53.82
2023-04-02T09:43:36.924Z,54.37
2023-04-02T09:46:23.790Z,53.44
2023-04-02T09:48:58.459Z,53.27
2023-04-02T09:51:28.130Z,52.79
2023-04-02T09:54:03.737Z,51.98
2023-04-02T09:56:32.887Z,52.24
2023-04-02T09:59:21.901Z,51.01
2023-04-02T10:01:54.284Z,49.61
2023-04-02T10:04:49.453Z,50.90
2023-04-02T10:07:37.383Z,47.11
2023-04-02T10:10:30.616Z,47.39
2023-04-02T10:13:04.123Z,49.35
2023-04-02T10:15:51.504Z,48.04
2023-04-02T10:18:41.489Z,48.28
2023-04-02T10:21:15.527Z,46.78
2023-04-02T10:23:42.023Z,48.02
2023-04-02T10:26:29.987Z,47.64
2023-04-02T10:29:18.146Z,50.03
2023-04-02T10:32:04.016Z,51.01
2023-04-02T10:34:41.160Z,49.76
2023-04-02T10:37:46.782Z,50.14
2023-04-02T10:40:45.493Z,49.24
2023-04-02T10:43:32.685Z,47.88
2023-04-02T10:46:10.158Z,47.07
2023-04-02T10:48:49.583Z,47.03
2023-04-02T10:51:33.823Z,45.42
2023-04-02T10:54:19.379Z,45.54
2023-04-02T10:56:50.933Z,46.33
2023-04-02T10:59:24.339Z,43.52
2023-04-02T11:01:53.560Z,43.56
2023-04-02T11:04:27.553Z,45.10
2023-04-02T11:07:11.031Z,42.53
2023-04-02T11:09:43.226Z,43.48
2023-04-02T11:12:21.340Z,43.69
2023-04-02T11:14:49.453Z,45.45
2023-04-02T11:17:19.611Z,41.92
2023-04-02T11:19:46.143Z,42.18
2023-04-02T11:22:25.578Z,41.10
2023-04-02T11:24:54.815Z,42.15
2023-04-02T11:27:32.694Z,39.10
2023-04-02T11:30:24.896Z,38.26
2023-04-02T11:32:51.618Z,41.50
2023-04-02T11:35:30.126Z,41.44
2023-04-02T11:38:00.841Z,39.42
2023-04-02T11:40:52.115Z,39.39
2023-04-02T11:43:38.445Z,39.11
2023-04-02T11:46:24.430Z,39.19
2023-04-02T11:48:51.426Z,39.42
2023-04-02T11:51:21.312Z,38.27
2023-04-02T11:53:49.898Z,38.83
2023-04-02T11:56:48.272Z,38.00
2023-04-02T11:59:25.749Z,40.69
2023-04-02T12:02:32.158Z,41.69
2023-04-02T12:04:58.751Z,40.10
2023-04-02T12:07:52.091Z,40.66
2023-04-02T12:10:32.409Z,39.28
2023-04-02T12:12:59.083Z,38.21
2023-04-02T12:15:44.394Z,38.14
2023-04-02T12:18:17.172Z,37.25
2023-04-02T12:20:50.767Z,38.35
2023-04-02T12:23:23.901Z,36.34
2023-04-02T12:25:58.566Z,36.95
2023-04-02T12:28:28.896Z,36.63
2023-04-02T12:31:06.070Z,39.30
2023-04-02T12:33:38.538Z,36.21
2023-04-02T12:36:14.440Z,37.78
2023-04-02T12:38:47.585Z,34.79
2023-04-02T12:41:24.680Z,37.37
2023-04-02T12:44:06.407Z,36.65
2023-04-02T12:46:35.704Z,34.79
2023-04-02T12:49:23.516Z,33.51
2023-04-02T12:51:51.451Z,35.26
2023-04-02T12:54:20.585Z,34.26
2023-04-02T12:56:48.238Z,33.96
2023-04-02T12:59:28.595Z,37.14
2023-04-02T13:02:00.628Z,34.37
2023-04-02T13:04:27.940Z,32.35
2023-04-02T13:06:55.756Z,32.92
2023-04-02T13:09:31.922Z,33.94
2023-04-02T13:11:59.172Z,32.40
2023-04-02T13:14:26.521Z,32.52
2023-04-02T13:16:53.444Z,35.61
2023-04-02T13:19:31.682Z,32.04
2023-04-02T13:22:01.606Z,32.54
2023-04-02T13:24:31.053Z,32.38
2023-04-02T13:27:00.893Z,31.97
2023-04-02T13:29:35.480Z,33.26
2023-04-02T13:32:05.645Z,33.85
2023-04-02T13:34:32.786Z,32.67
2023-04-02T13:36:59.356Z,32.37
2023-04-02T13:39:27.197Z,32.98
2023-04-02T13:41:57.897Z,32.28
2023-04-02T13:44:27.800Z,30.56
2023-04-02T13:46:55.600Z,30.43
2023-04-02T13:49:23.622Z,31.00
2023-04-02T13:51:57.942Z,30.98
2023-04-02T13:54:51.184Z,31.42
2023-04-02T13:57:18.028Z,30.86
2023-04-02T13:59:44.510Z,34.05
2023-04-02T14:02:18.808Z,31.90
2023-04-02T14:04:50.919Z,32.69
2023-04-02T14:07:26.080Z,30.85
2023-04-02T14:10:01.916Z,31.78
2023-04-02T14:13:00.392Z,31.91
2023-04-02T14:15:47.879Z,30.13
2023-04-02T14:18:23.580Z,31.04
2023-04-02T14:20:52.934Z,29.82
2023-04-02T14:23:28.695Z,32.49
2023-04-02T14:26:15.236Z,30.01
2023-04-02T14:28:50.642Z,32.57
2023-04-02T14:31:28.569Z,30.56
2023-04-02T14:34:02.987Z,32.06
2023-04-02T14:36:48.218Z,29.49
2023-04-02T14:39:38.716Z,30.62
2023-04-02T14:42:16.638Z,31.65
2023-04-02T14:45:11.605Z,31.05
2023-04-02T14:47:53.107Z,29.37
2023-04-02T14:50:27.788Z,31.33
2023-04-02T14:52:59.415Z,32.48
2023-04-02T14:55:44.564Z,32.30
2023-04-02T14:58:18.685Z,31.26
2023-04-02T15:01:01.848Z,32.67
2023-04-02T15:03:58.795Z,32.52
2023-04-02T15:06:41.695Z,32.99
2023-04-02T15:09:23.766Z,33.16
2023-04-02T15:11:59.226Z,32.72
2023-04-02T15:14:36.886Z,32.76
2023-04-02T15:17:03.380Z,34.92
2023-04-02T15:19:29.975Z,35.43
2023-04-02T15:22:14.125Z,35.48
2023-04-02T15:25:03.122Z,35.24
2023-04-02T15:27:48.366Z,36.23
2023-04-02T15:30:22.045Z,36.45
2023-04-02T15:32:49.600Z,36.11
2023-04-02T15:35:28.722Z,36.90
2023-04-02T15:37:58.606Z,37.14
2023-04-02T15:40:31.028Z,37.00
2023-04-02T15:43:18.857Z,36.71
2023-04-02T15:45:58.507Z,37.58
2023-04-02T15:48:53.007Z,39.09
2023-04-02T15:51:38.551Z,39.83
2023-04-02T15:54:31.868Z,38.88
2023-04-02T15:57:17.193Z,39.19
2023-04-02T16:00:02.288Z,37.83
2023-04-02T16:02:41.160Z,37.88
2023-04-02T16:05:33.379Z,39.79
2023-04-02T16:08:17.828Z,39.96
2023-04-02T16:10:45.523Z,39.73
2023-04-02T16:13:19.609Z,38.83
2023-04-02T16:15:53.392Z,37.74
2023-04-02T16:18:38.265Z,37.46
2023-04-02T16:21:04.893Z,37.28
2023-04-02T16:23:39.127Z,39.34
2023-04-02T16:26:23.698Z,39.33
2023-04-02T16:29:27.377Z,39.57
2023-04-02T16:32:19.868Z,40.81
2023-04-02T16:35:22.272Z,41.00
2023-04-02T16:37:56.280Z,41.72
2023-04-02T16:40:25.369Z,41.47
2023-04-02T16:43:21.884Z,42.47
2023-04-02T16:46:03.171Z,41.98
2023-04-02T16:48:55.227Z,42.43
2023-04-02T16:51:28.999Z,42.63
2023-04-02T16:54:18.563Z,43.74
2023-04-02T16:57:09.970Z,43.37
2023-04-02T16:59:54.952Z,43.60
2023-04-02T17:03:01.166Z,44.26
2023-04-02T17:06:11.865Z,44.56
2023-04-02T17:09:09.518Z,45.16
2023-04-02T17:11:48.854Z,45.07
2023-04-02T17:14:24.329Z,46.58
2023-04-02T17:16:55.866Z,46.13
2023-04-02T17:19:25.844Z,45.98
2023-04-02T17:21:56.679Z,46.42
2023-04-02T17:24:29.839Z,46.31
2023-04-02T17:27:06.690Z,46.58
2023-04-02T17:29:37.721Z,46.35
2023-04-02T17:32:11.987Z,47.72
2023-04-02T17:34:38.426Z,47.49
2023-04-02T17:37:27.525Z,47.54
2023-04-02T17:40:08.252Z,47.47
2023-04-02T17:43:08.928Z,48.35
2023-04-02T17:45:49.926Z,48.80
2023-04-02T17:48:40.383Z,49.48
2023-04-02T17:51:12.265Z,50.21
2023-04-02T17:53:47.800Z,50.28
2023-04-02T17:56:36.542Z,50.90
2023-04-02T17:59:34.422Z,51.60
2023-04-02T18:02:24.027Z,52.11
2023-04-02T18:05:19.671Z,52.38
2023-04-02T18:08:07.383Z,53.04
2023-04-02T18:11:04.506Z,53.18
2023-04-02T18:13:42.400Z,53.10
2023-04-02T18:16:22.315Z,52.38
2023-04-02T18:19:10.977Z,53.64
2023-04-02T18:22:02.480Z,53.44
2023-04-02T18:24:40.757Z,53.72
2023-04-02T18:27:52.088Z,54.72
2023-04-02T18:30:49.203Z,54.01
2023-04-02T18:33:28.511Z,55.23
2023-04-02T18:36:06.439Z,56.13
2023-04-02T18:39:00.645Z,55.76
2023-04-02T18:42:06.015Z,55.58
2023-04-02T18:44:53.007Z,54.86
2023-04-02T18:47:29.889Z,55.19
2023-04-02T18:50:40.951Z,55.54
2023-04-02T18:53:16.832Z,57.11
2023-04-02T18:55:50.432Z,55.99
2023-04-02T18:58:25.589Z,57.09
2023-04-02T19:00:52.472Z,56.95
2023-04-02T19:03:25.988Z,56.54
2023-04-02T19:06:03.169Z,56.83
2023-04-02T19:08:48.379Z,57.16
2023-04-02T19:11:21.966Z,56.85
2023-04-02T19:13:50.792Z,55.86
2023-04-02T19:16:17.197Z,56.27
2023-04-02T19:18:50.104Z,55.52
2023-04-02T19:21:33.221Z,56.53
2023-04-02T19:24:19.763Z,56.02
2023-04-02T19:26:56.477Z,55.83
2023-04-02T19:29:46.587Z,56.38
2023-04-02T19:32:33.850Z,55.51
2023-04-02T19:35:16.053Z,56.38
2023-04-02T19:38:10.205Z,56.92
2023-04-02T19:41:01.879Z,56.95
2023-04-02T19:43:29.159Z,56.79
2023-04-02T19:45:56.107Z,56.63
2023-04-02T19:48:28.905Z,56.86
2023-04-02T19:50:55.502Z,57.87
2023-04-02T19:53:22.191Z,57.82
2023-04-02T19:55:48.813Z,57.03
2023-04-02T19:58:30.675Z,57.83
2023-04-02T20:00:57.710Z,57.38
2023-04-02T20:03:24.539Z,58.49
2023-04-02T20:05:51.592Z,58.17
2023-04-02T20:08:18.310Z,59.48
2023-04-02T20:10:45.749Z,58.89
2023-04-02T20:13:12.292Z,58.34
2023-04-02T20:15:39.622Z,58.63
2023-04-02T20:18:06.161Z,60.09
2023-04-02T20:20:32.715Z,58.90
2023-04-02T20:22:59.412Z,59.27
2023-04-02T20:25:25.996Z,60.38
2023-04-02T20:27:52.480Z,59.96
2023-04-02T20:30:18.991Z,59.74
2023-04-02T20:32:45.776Z,59.92
2023-04-02T20:35:12.469Z,60.50
2023-04-02T20:37:40.868Z,60.53
2023-04-02T20:40:08.664Z,60.59
2023-04-02T20:42:35.305Z,60.52
2023-04-02T20:45:02.216Z,61.08
2023-04-02T20:47:28.653Z,60.44
2023-04-02T20:49:55.371Z,60.81
2023-04-02T20:52:21.953Z,60.95
2023-04-02T20:54:49.463Z,61.62
2023-04-02T20:57:16.565Z,62.01
2023-04-02T20:59:43.242Z,62.23
2023-04-02T21:02:11.836Z,61.94
2023-04-02T21:04:38.440Z,62.32
2023-04-02T21:07:04.902Z,62.86
2023-04-02T21:09:32.129Z,62.66
2023-04-02T21:11:59.101Z,62.99
2023-04-02T21:14:26.121Z,63.72
2023-04-02T21:16:52.534Z,64.09
2023-04-02T21:19:18.999Z,64.13
2023-04-02T21:21:45.547Z,64.04
2023-04-02T21:24:12.101Z,63.81
2023-04-02T21:26:41.054Z,63.91
2023-04-02T21:29:08.062Z,64.34
2023-04-02T21:31:37.534Z,64.30
2023-04-02T21:34:05.106Z,64.20
2023-04-02T21:36:34.934Z,64.21
2023-04-02T21:39:05.241Z,64.60
2023-04-02T21:41:40.809Z,64.60
2023-04-02T21:44:08.704Z,65.28
2023-04-02T21:46:38.473Z,65.37
2023-04-02T21:49:07.873Z,65.39
2023-04-02T21:51:35.794Z,65.77
2023-04-02T21:54:03.422Z,65.92
2023-04-02T21:56:32.293Z,66.40
2023-04-02T21:59:01.726Z,66.57
2023-04-02T22:01:34.369Z,66.74
2023-04-02T22:04:03.302Z,66.69
2023-04-02T22:06:31.467Z,66.83
2023-04-02T22:09:01.029Z,67.00
2023-04-02T22:11:34.547Z,67.38
2023-04-02T22:14:03.371Z,67.68
2023-04-02T22:16:32.027Z,67.89
2023-04-02T22:19:01.404Z,68.40
2023-04-02T22:21:29.568Z,68.12
2023-04-02T22:23:56.442Z,68.40
2023-04-02T22:26:23.222Z,68.20
2023-04-02T22:28:50.028Z,68.32
2023-04-02T22:31:19.168Z,68.81
2023-04-02T22:33:47.271Z,69.21
2023-04-02T22:36:15.791Z,68.49
2023-04-02T22:38:42.916Z,68.78
2023-04-02T22:41:13.170Z,69.65
2023-04-02T22:43:41.393Z,69.30
2023-04-02T22:46:09.938Z,69.27
2023-04-02T22:48:39.320Z,69.07
2023-04-02T22:51:07.604Z,68.61
2023-04-02T22:53:34.977Z,68.80
2023-04-02T22:56:03.490Z,69.52
2023-04-02T22:58:30.206Z,69.80
2023-04-02T23:00:56.622Z,69.65
2023-04-02T23:03:23.178Z,69.47
2023-04-02T23:06:04.537Z,69.25
2023-04-02T23:08:31.255Z,69.22
2023-04-02T23:11:12.313Z,69.62
2023-04-02T23:13:40.254Z,69.73
2023-04-02T23:16:08.593Z,70.05
2023-04-02T23:18:35.888Z,70.00
2023-04-02T23:21:03.266Z,69.73
2023-04-02T23:23:31.361Z,69.81
2023-04-02T23:26:09.376Z,69.71
2023-04-02T23:28:37.496Z,70.50
2023-04-02T23:31:06.658Z,70.31
2023-04-02T23:33:34.154Z,70.85
2023-04-02T23:36:05.819Z,69.95
2023-04-02T23:38:33.529Z,70.41
2023-04-02T23:40:59.930Z,70.23
2023-04-02T23:43:26.511Z,71.00
2023-04-02T23:45:53.002Z,71.20
2023-04-02T23:48:19.671Z,70.79
2023-04-02T23:50:46.243Z,71.33
2023-04-02T23:53:13.776Z,71.08
2023-04-02T23:55:40.659Z,70.46
2023-04-02T23:58:07.426Z,70.96
